Darstellungsparameter: Aktuell verwendete Einstellungen:
Skalierung der Graphiken ... ?
xyx+y,   Skalierungsfaktor:      Skalierung: Modus: x, Faktor: 1
Darstellungszeitraum ... ?
Vom - - bis: - -   Zeitraum: 09.09.2013 - 29.09.2013
Min/Max/Avg-Anzeige ... ?
Zeige MMA aktuell
Zeige MMA Monat
Zeige MMA alles
Zeige --A aktuell
Zeige --A Monat
Zeige --A alles
Keine MMA-Anzeige
MMA:
Average (ber die Originaldaten)
MMA-Basis: 09.09.2013 - 29.09.2013
Quicknavigation für Darstellung... ?
Tage:      1T, 2T, 3T, 5T -1T -2T -3T -5T +1T +2T +3T +5T
Wochen: 1W, 2W, 3W -1W -2W -3W +1W +2W +3W
Monate: 1M, 3M, 6M -1M -3M -6M +1M +3M +6M
Jahre:    1J, 3J, 5J, 10J -1J -3J -5J -10J +1J +3J +5J +10J
Nutze für die Darstellung ... ?
Originaldaten oder ...
Mittelwerte Minima Maxima auf...
Stundenbasis Tagesbasis Wochenbasis
Monatsbasis Jahresbasis      Datenbasis: Mittelwerte auf Stundenbasis
Darstellen als:
Statistik (Auto) Statistik J:M      Darstellung:
Zur Graphik,    zurück zur Übersicht aller Sensoren.
 
Tabellarische Datenbersicht: ?
 
Sensor: Nr:Datum:Temp:Abs-Feuchte:Windchill:Wind:
Aussen-T/F 1 09-09-2013 00:00:00 13.6 C 11.42 g/m*3 13.6 C 0 km/h
2 09-09-2013 01:00:00 13.325 C 11.21 g/m*3 13.33 C 0 km/h
3 09-09-2013 02:00:00 13.15833 C 11.11 g/m*3 13.16 C 0 km/h
4 09-09-2013 03:00:00 13.14167 C 11.1 g/m*3 13.14 C 0 km/h
5 09-09-2013 04:00:00 13.28333 C 11.19 g/m*3 13.28 C 0.4 km/h
6 09-09-2013 05:00:00 13.10833 C 11.04 g/m*3 13.11 C 1.2 km/h
7 09-09-2013 06:00:00 12.45 C 10.35 g/m*3 12.45 C 4.81667 km/h
8 09-09-2013 07:00:00 11.41667 C 9.83 g/m*3 11.42 C 0.8 km/h
9 09-09-2013 08:00:00 11.65833 C 9.97 g/m*3 11.66 C 1.6 km/h
10 09-09-2013 09:00:00 11.91667 C 9.97 g/m*3 11.92 C 3.075 km/h
11 09-09-2013 10:00:00 12.95833 C 10.28 g/m*3 12.96 C 8.2 km/h
12 09-09-2013 11:00:00 14.35 C 10.49 g/m*3 14.35 C 10.1 km/h
13 09-09-2013 12:00:00 16.20833 C 10.5 g/m*3 16.21 C 11.28333 km/h
14 09-09-2013 13:00:00 17.6 C 10.12 g/m*3 17.6 C 12.48333 km/h
15 09-09-2013 14:00:00 16.94167 C 10.06 g/m*3 16.94 C 6.025 km/h
16 09-09-2013 15:00:00 16.99167 C 9.93 g/m*3 16.99 C 5.76667 km/h
17 09-09-2013 16:00:00 18.49167 C 9.49 g/m*3 18.49 C 11.15833 km/h
18 09-09-2013 17:00:00 16.99167 C 10.5 g/m*3 16.99 C 3.75 km/h
19 09-09-2013 18:00:00 15.325 C 11.24 g/m*3 15.33 C 0.26667 km/h
20 09-09-2013 19:00:00 14.59167 C 10.43 g/m*3 14.59 C 1.6 km/h
21 09-09-2013 20:00:00 13.84167 C 10.53 g/m*3 13.84 C 0.13333 km/h
22 09-09-2013 21:00:00 13.21667 C 10.32 g/m*3 13.22 C 0 km/h
23 09-09-2013 22:00:00 12.86667 C 10.46 g/m*3 12.87 C 0.26667 km/h
24 09-09-2013 23:00:00 12.63333 C 10.61 g/m*3 12.63 C 0.93333 km/h
25 10-09-2013 00:00:00 12.59167 C 10.61 g/m*3 12.59 C 0.66667 km/h
Sensor: Nr:Datum:Temp:Abs-Feuchte:Windchill:Wind:
Aussen-T/F 26 10-09-2013 01:00:00 12.6875 C 10.76 g/m*3 12.69 C 1.4 km/h
27 10-09-2013 02:00:00 12.95714 C 10.97 g/m*3 12.96 C 0.45714 km/h
28 10-09-2013 03:00:00 13.22857 C 11.16 g/m*3 13.23 C 1.37143 km/h
29 10-09-2013 04:00:00 12.46667 C 10.17 g/m*3 12.47 C 6.43333 km/h
30 10-09-2013 05:00:00 11.16667 C 9.19 g/m*3 11.17 C 4.29167 km/h
31 10-09-2013 06:00:00 10.49167 C 9.04 g/m*3 10.49 C 0.8 km/h
32 10-09-2013 07:00:00 9.70833 C 8.84 g/m*3 9.71 C 0 km/h
33 10-09-2013 08:00:00 9.99167 C 8.79 g/m*3 9.56 C 5.63333 km/h
34 10-09-2013 09:00:00 11.525 C 8.97 g/m*3 11.53 C 11.56667 km/h
35 10-09-2013 10:00:00 12.59167 C 9.39 g/m*3 12.59 C 10.08333 km/h
36 10-09-2013 11:00:00 13.45833 C 9.64 g/m*3 13.46 C 9.275 km/h
37 10-09-2013 12:00:00 14.26667 C 9.48 g/m*3 14.27 C 10.625 km/h
38 10-09-2013 13:00:00 15.64167 C 9.25 g/m*3 15.64 C 14.23333 km/h
39 10-09-2013 14:00:00 15.89167 C 9.25 g/m*3 15.89 C 15.29167 km/h
40 10-09-2013 15:00:00 15.84167 C 9.36 g/m*3 15.84 C 15.15833 km/h
41 10-09-2013 16:00:00 15.86667 C 9.42 g/m*3 15.87 C 13.55833 km/h
42 10-09-2013 17:00:00 15.76667 C 9.65 g/m*3 15.77 C 11.025 km/h
43 10-09-2013 18:00:00 15.3 C 9.75 g/m*3 15.3 C 9.15 km/h
44 10-09-2013 19:00:00 14.84167 C 9.44 g/m*3 14.84 C 8.2 km/h
45 10-09-2013 20:00:00 14.06667 C 9.3 g/m*3 14.07 C 4.825 km/h
46 10-09-2013 21:00:00 13.56667 C 9.3 g/m*3 13.57 C 8.88333 km/h
47 10-09-2013 22:00:00 13.26667 C 9.04 g/m*3 13.27 C 8.325 km/h
48 10-09-2013 23:00:00 12.8 C 8.98 g/m*3 12.8 C 6.3 km/h
49 11-09-2013 00:00:00 12.78333 C 8.8 g/m*3 12.78 C 11.95833 km/h
50 11-09-2013 01:00:00 12.6 C 8.7 g/m*3 12.6 C 12.5 km/h
Sensor: Nr:Datum:Temp:Abs-Feuchte:Windchill:Wind:
Aussen-T/F 51 11-09-2013 02:00:00 12.25833 C 8.87 g/m*3 12.26 C 11.96667 km/h
52 11-09-2013 03:00:00 12.175 C 8.97 g/m*3 12.18 C 15.84167 km/h
53 11-09-2013 04:00:00 11.89167 C 9.1 g/m*3 11.89 C 12.36667 km/h
54 11-09-2013 05:00:00 12.18333 C 9.11 g/m*3 12.18 C 15.025 km/h
55 11-09-2013 06:00:00 11.575 C 9.4 g/m*3 11.58 C 11.3 km/h
56 11-09-2013 07:00:00 11.45833 C 9.52 g/m*3 11.46 C 9.79167 km/h
57 11-09-2013 08:00:00 11.45833 C 9.75 g/m*3 11.46 C 5.23333 km/h
58 11-09-2013 09:00:00 11.78333 C 9.98 g/m*3 11.78 C 5.225 km/h
59 11-09-2013 10:00:00 12.475 C 10.14 g/m*3 12.48 C 6.45 km/h
60 11-09-2013 11:00:00 13.69167 C 10.41 g/m*3 13.69 C 8.33333 km/h
61 11-09-2013 12:00:00 14.86667 C 10.29 g/m*3 14.87 C 8.75 km/h
62 11-09-2013 13:00:00 15.31 C 10.7 g/m*3 15.31 C 5.63 km/h
63 11-09-2013 14:00:00 16.17143 C 11.35 g/m*3 16.17 C 5.52857 km/h
64 11-09-2013 15:00:00 17.41667 C 10.76 g/m*3 17.42 C 8.875 km/h
65 11-09-2013 16:00:00 17.18 C 11.03 g/m*3 17.18 C 5.16 km/h
66 11-09-2013 17:00:00 15.98333 C 11.49 g/m*3 15.98 C 9.675 km/h
67 11-09-2013 18:00:00 13.00833 C 10.55 g/m*3 13.01 C 2.81667 km/h
68 11-09-2013 19:00:00 12.50833 C 10.51 g/m*3 12.51 C 1.6 km/h
69 11-09-2013 20:00:00 12.075 C 10.18 g/m*3 12.08 C 2.275 km/h
70 11-09-2013 21:00:00 11.8 C 10.1 g/m*3 11.8 C 0.26667 km/h
71 11-09-2013 22:00:00 11.8 C 10.19 g/m*3 11.8 C 0.66667 km/h
72 11-09-2013 23:00:00 11.9 C 10.26 g/m*3 11.9 C 2 km/h
73 12-09-2013 00:00:00 12.26667 C 10.4 g/m*3 12.27 C 2.26667 km/h
74 12-09-2013 01:00:00 12.4 C 10.38 g/m*3 12.4 C 1.33333 km/h
75 12-09-2013 02:00:00 12.39167 C 10.38 g/m*3 12.39 C 2.26667 km/h
Sensor: Nr:Datum:Temp:Abs-Feuchte:Windchill:Wind:
Aussen-T/F 76 12-09-2013 03:00:00 12.325 C 10.37 g/m*3 12.33 C 1.2 km/h
77 12-09-2013 04:00:00 12.275 C 10.41 g/m*3 12.28 C 1.06667 km/h
78 12-09-2013 05:00:00 12.34167 C 10.4 g/m*3 12.34 C 0.8 km/h
79 12-09-2013 06:00:00 12.25 C 10.4 g/m*3 12.25 C 0 km/h
80 12-09-2013 07:00:00 12.05 C 10.37 g/m*3 12.05 C 0.13333 km/h
81 12-09-2013 08:00:00 12.21667 C 10.48 g/m*3 12.22 C 0.26667 km/h
82 12-09-2013 09:00:00 13.05 C 10.83 g/m*3 13.05 C 5.08333 km/h
83 12-09-2013 10:00:00 14.175 C 10.83 g/m*3 14.18 C 5.48333 km/h
84 12-09-2013 11:00:00 13.83333 C 11.08 g/m*3 13.83 C 3.33333 km/h
85 12-09-2013 12:00:00 14.84167 C 11.36 g/m*3 14.84 C 3.33333 km/h
86 12-09-2013 13:00:00 14.8 C 11.68 g/m*3 14.8 C 0.93333 km/h
87 12-09-2013 14:00:00 15.125 C 11.49 g/m*3 15.13 C 5.89167 km/h
88 12-09-2013 15:00:00 16.45 C 12.14 g/m*3 16.45 C 3.475 km/h
89 12-09-2013 16:00:00 17.00833 C 11.15 g/m*3 17.01 C 9.80833 km/h
90 12-09-2013 17:00:00 15.91667 C 11.09 g/m*3 15.92 C 9.125 km/h
91 12-09-2013 18:00:00 14.23333 C 11.2 g/m*3 14.23 C 1.6 km/h
92 12-09-2013 19:00:00 13.68333 C 11.23 g/m*3 13.68 C 0 km/h
93 12-09-2013 20:00:00 12.99167 C 10.82 g/m*3 12.99 C 0 km/h
94 12-09-2013 21:00:00 12.68333 C 10.68 g/m*3 12.68 C 0.26667 km/h
95 12-09-2013 22:00:00 12.75833 C 10.75 g/m*3 12.76 C 0.4 km/h
96 12-09-2013 23:00:00 12.76667 C 10.73 g/m*3 12.77 C 0 km/h
97 13-09-2013 00:00:00 12.58333 C 10.69 g/m*3 12.58 C 0.13333 km/h
98 13-09-2013 01:00:00 12.86667 C 10.81 g/m*3 12.87 C 0 km/h
99 13-09-2013 02:00:00 12.58333 C 10.61 g/m*3 12.58 C 0 km/h
100 13-09-2013 03:00:00 12.41667 C 10.52 g/m*3 12.42 C 1.46667 km/h
Sensor: Nr:Datum:Temp:Abs-Feuchte:Windchill:Wind:
Aussen-T/F 101 13-09-2013 04:00:00 12.875 C 10.54 g/m*3 12.88 C 3.475 km/h
102 13-09-2013 05:00:00 12.44167 C 10.24 g/m*3 12.44 C 0.8 km/h
103 13-09-2013 06:00:00 12.03333 C 10.09 g/m*3 12.03 C 2.93333 km/h
104 13-09-2013 07:00:00 12.15833 C 10.16 g/m*3 12.16 C 4.14167 km/h
105 13-09-2013 08:00:00 12.43333 C 10.29 g/m*3 12.43 C 3.34167 km/h
106 13-09-2013 09:00:00 13.325 C 10.69 g/m*3 13.33 C 4.55 km/h
107 13-09-2013 10:00:00 14.50833 C 11.02 g/m*3 14.51 C 6.55 km/h
108 13-09-2013 11:00:00 15.43333 C 11.4 g/m*3 15.43 C 7.38333 km/h
109 13-09-2013 12:00:00 16.16667 C 11.69 g/m*3 16.17 C 6.43333 km/h
110 13-09-2013 13:00:00 17.06667 C 11.71 g/m*3 17.07 C 6.84167 km/h
111 13-09-2013 14:00:00 17.85 C 11.56 g/m*3 17.85 C 7.25 km/h
112 13-09-2013 15:00:00 18.25 C 11.57 g/m*3 18.25 C 6.43333 km/h
113 13-09-2013 16:00:00 18.36667 C 11.63 g/m*3 18.37 C 6.18333 km/h
114 13-09-2013 17:00:00 18.60833 C 11.74 g/m*3 18.61 C 4.41667 km/h
115 13-09-2013 18:00:00 17.725 C 11.91 g/m*3 17.73 C 3.225 km/h
116 13-09-2013 19:00:00 15.40833 C 11.62 g/m*3 15.41 C 1.06667 km/h
117 13-09-2013 20:00:00 14.1375 C 11.12 g/m*3 14.14 C 0.8 km/h
118 13-09-2013 21:00:00 13.74 C 11.3 g/m*3 13.74 C 0.32 km/h
119 13-09-2013 22:00:00 14.3125 C 11.36 g/m*3 14.31 C 1 km/h
120 13-09-2013 23:00:00 14.03333 C 11.42 g/m*3 14.03 C 0 km/h
121 14-09-2013 00:00:00 14.01667 C 11.44 g/m*3 14.02 C 0.13333 km/h
122 14-09-2013 01:00:00 14.29167 C 11.54 g/m*3 14.29 C 0.53333 km/h
123 14-09-2013 02:00:00 14.525 C 11.65 g/m*3 14.53 C 2.4 km/h
124 14-09-2013 03:00:00 14.81667 C 11.76 g/m*3 14.82 C 2 km/h
125 14-09-2013 04:00:00 14.575 C 11.84 g/m*3 14.58 C 0.8 km/h
Sensor: Nr:Datum:Temp:Abs-Feuchte:Windchill:Wind:
Aussen-T/F 126 14-09-2013 05:00:00 14.425 C 11.87 g/m*3 14.43 C 0.13333 km/h
127 14-09-2013 06:00:00 14.55 C 12.09 g/m*3 14.55 C 0.13333 km/h
128 14-09-2013 07:00:00 14.63333 C 12.16 g/m*3 14.63 C 0 km/h
129 14-09-2013 08:00:00 15.14167 C 12.57 g/m*3 15.14 C 0 km/h
130 14-09-2013 09:00:00 15.825 C 13.09 g/m*3 15.83 C 0.13333 km/h
131 14-09-2013 10:00:00 16.45 C 13.58 g/m*3 16.45 C 0.13333 km/h
132 14-09-2013 11:00:00 17.125 C 13.89 g/m*3 17.13 C 2.15 km/h
133 14-09-2013 12:00:00 17.78333 C 14.44 g/m*3 17.78 C 1.2 km/h
134 14-09-2013 13:00:00 18.85 C 14.81 g/m*3 18.85 C 2.8 km/h
135 14-09-2013 14:00:00 19.05 C 13.87 g/m*3 19.05 C 13.13333 km/h
136 14-09-2013 15:00:00 18.025 C 12.72 g/m*3 18.02 C 13.03333 km/h
137 14-09-2013 16:00:00 17.79167 C 12.62 g/m*3 17.79 C 6.30833 km/h
138 14-09-2013 17:00:00 17.33333 C 12.58 g/m*3 17.33 C 3.61667 km/h
139 14-09-2013 18:00:00 16.51667 C 12.64 g/m*3 16.52 C 3.74167 km/h
140 14-09-2013 19:00:00 15.69167 C 12.57 g/m*3 15.69 C 1.73333 km/h
141 14-09-2013 20:00:00 15.21667 C 12.29 g/m*3 15.22 C 2.275 km/h
142 14-09-2013 21:00:00 14.60833 C 11.76 g/m*3 14.61 C 2.01667 km/h
143 14-09-2013 22:00:00 14.24167 C 11.76 g/m*3 14.24 C 0 km/h
144 14-09-2013 23:00:00 14.175 C 11.83 g/m*3 14.18 C 0 km/h
145 15-09-2013 00:00:00 13.94167 C 11.66 g/m*3 13.94 C 0 km/h
146 15-09-2013 01:00:00 13.975 C 11.68 g/m*3 13.98 C 0 km/h
147 15-09-2013 02:00:00 13.9 C 11.62 g/m*3 13.9 C 0.94167 km/h
148 15-09-2013 03:00:00 13.625 C 11.31 g/m*3 13.63 C 0 km/h
149 15-09-2013 04:00:00 13.43333 C 10.94 g/m*3 13.43 C 2.54167 km/h
150 15-09-2013 05:00:00 13.48333 C 10.81 g/m*3 13.48 C 0.93333 km/h
Sensor: Nr:Datum:Temp:Abs-Feuchte:Windchill:Wind:
Aussen-T/F 151 15-09-2013 06:00:00 13.025 C 10.81 g/m*3 13.03 C 0.13333 km/h
152 15-09-2013 07:00:00 12.7 C 10.68 g/m*3 12.7 C 0.93333 km/h
153 15-09-2013 08:00:00 12.8 C 10.66 g/m*3 12.8 C 0.66667 km/h
154 15-09-2013 09:00:00 13.2 C 10.51 g/m*3 13.2 C 4.80833 km/h
155 15-09-2013 10:00:00 13.89167 C 10.43 g/m*3 13.89 C 5.35 km/h
156 15-09-2013 11:00:00 14.48333 C 10.15 g/m*3 14.48 C 2.13333 km/h
157 15-09-2013 12:00:00 15.475 C 10.46 g/m*3 15.48 C 4.95833 km/h
158 15-09-2013 13:00:00 16.41667 C 10.25 g/m*3 16.42 C 3.73333 km/h
159 15-09-2013 14:00:00 16.95833 C 10.32 g/m*3 16.96 C 3.33333 km/h
160 15-09-2013 15:00:00 17.40833 C 10.03 g/m*3 17.41 C 3.75 km/h
161 15-09-2013 16:00:00 16.975 C 10.64 g/m*3 16.98 C 1.2 km/h
162 15-09-2013 17:00:00 16.275 C 11.54 g/m*3 16.27 C 0.4 km/h
163 15-09-2013 18:00:00 14.98333 C 11.45 g/m*3 14.98 C 0 km/h
164 15-09-2013 19:00:00 14.00833 C 11.06 g/m*3 14.01 C 0.13333 km/h
165 15-09-2013 20:00:00 13.53333 C 10.84 g/m*3 13.53 C 0 km/h
166 15-09-2013 21:00:00 13.25833 C 10.66 g/m*3 13.26 C 0 km/h
167 15-09-2013 22:00:00 13.925 C 10.12 g/m*3 13.93 C 5.23333 km/h
168 15-09-2013 23:00:00 14.325 C 9.25 g/m*3 14.33 C 7.925 km/h
169 16-09-2013 00:00:00 13.625 C 9.51 g/m*3 13.63 C 6.44167 km/h
170 16-09-2013 01:00:00 12.33333 C 9.87 g/m*3 12.33 C 2.93333 km/h
171 16-09-2013 02:00:00 12.35833 C 10.05 g/m*3 12.36 C 5.36667 km/h
172 16-09-2013 03:00:00 12.725 C 10.17 g/m*3 12.73 C 9.4 km/h
173 16-09-2013 04:00:00 12.91667 C 10.04 g/m*3 12.92 C 18.64167 km/h
174 16-09-2013 05:00:00 13.05 C 9.96 g/m*3 13.05 C 18.76667 km/h
175 16-09-2013 06:00:00 12.625 C 10.06 g/m*3 12.63 C 16.36667 km/h
Sensor: Nr:Datum:Temp:Abs-Feuchte:Windchill:Wind:
Aussen-T/F 176 16-09-2013 07:00:00 12.7 C 9.99 g/m*3 12.7 C 15.16667 km/h
177 16-09-2013 08:00:00 13.15 C 10.2 g/m*3 13.15 C 11.41667 km/h
178 16-09-2013 09:00:00 13.73333 C 10.43 g/m*3 13.73 C 11.025 km/h
179 16-09-2013 10:00:00 12.54167 C 9.83 g/m*3 12.54 C 6.84167 km/h
180 16-09-2013 11:00:00 13.23333 C 9.91 g/m*3 13.23 C 3.475 km/h
181 16-09-2013 12:00:00 14.73333 C 9.91 g/m*3 14.73 C 7.1 km/h
182 16-09-2013 13:00:00 14.36667 C 9.46 g/m*3 14.37 C 7.65833 km/h
183 16-09-2013 14:00:00 14.85 C 9.02 g/m*3 14.85 C 10.49167 km/h
184 16-09-2013 15:00:00 15.7 C 9.28 g/m*3 15.7 C 6.98333 km/h
185 16-09-2013 16:00:00 15.95833 C 8.97 g/m*3 15.96 C 6.56667 km/h
186 16-09-2013 17:00:00 15.73333 C 8.9 g/m*3 15.73 C 5.9 km/h
187 16-09-2013 18:00:00 13.84167 C 9.22 g/m*3 13.84 C 2.94167 km/h
188 16-09-2013 19:00:00 12.2 C 8.41 g/m*3 12.2 C 2.66667 km/h
189 16-09-2013 20:00:00 11.75833 C 8.48 g/m*3 11.76 C 2.8 km/h
190 16-09-2013 21:00:00 11.59167 C 8.06 g/m*3 11.59 C 4.95 km/h
191 16-09-2013 22:00:00 11.15833 C 7.33 g/m*3 11.16 C 5.35 km/h
192 16-09-2013 23:00:00 10.71667 C 7.24 g/m*3 10.29 C 6.025 km/h
193 17-09-2013 00:00:00 10.275 C 7.29 g/m*3 9.78 C 6.025 km/h
194 17-09-2013 01:00:00 9.49167 C 7.6 g/m*3 8.95 C 5.75833 km/h
195 17-09-2013 02:00:00 9.48333 C 7.79 g/m*3 8.76 C 6.44167 km/h
196 17-09-2013 03:00:00 8.86667 C 7.59 g/m*3 8.87 C 4.81667 km/h
197 17-09-2013 04:00:00 8.75833 C 7.52 g/m*3 8 C 6.15833 km/h
198 17-09-2013 05:00:00 8.43333 C 7.34 g/m*3 6.87 C 9.4 km/h
199 17-09-2013 06:00:00 8.14167 C 7.27 g/m*3 8.14 C 4.81667 km/h
200 17-09-2013 07:00:00 8.225 C 7.27 g/m*3 7.35 C 6.3 km/h
Sensor: Nr:Datum:Temp:Abs-Feuchte:Windchill:Wind:
Aussen-T/F 201 17-09-2013 08:00:00 8.58333 C 7.42 g/m*3 7.91 C 5.75 km/h
202 17-09-2013 09:00:00 9.46667 C 7.61 g/m*3 7.56 C 12.74167 km/h
203 17-09-2013 10:00:00 10.00833 C 7.62 g/m*3 8.05 C 13.96667 km/h
204 17-09-2013 11:00:00 11.15 C 7.76 g/m*3 11.15 C 17.96667 km/h
205 17-09-2013 12:00:00 12.30833 C 7.99 g/m*3 12.31 C 17.16667 km/h
206 17-09-2013 13:00:00 12.69167 C 8.16 g/m*3 12.69 C 13.43333 km/h
207 17-09-2013 14:00:00 13.575 C 8.25 g/m*3 13.58 C 18.23333 km/h
208 17-09-2013 15:00:00 12.76667 C 8.45 g/m*3 12.77 C 17.16667 km/h
209 17-09-2013 16:00:00 13.06667 C 8.46 g/m*3 13.07 C 15.16667 km/h
210 17-09-2013 17:00:00 12.65 C 8.26 g/m*3 12.65 C 9.675 km/h
211 17-09-2013 18:00:00 12.24167 C 8.63 g/m*3 12.24 C 4.15833 km/h
212 17-09-2013 19:00:00 11.7 C 8.77 g/m*3 11.7 C 4.41667 km/h
213 17-09-2013 20:00:00 10.94167 C 8.95 g/m*3 10.94 C 2.66667 km/h
214 17-09-2013 21:00:00 10.41667 C 8.94 g/m*3 10.42 C 1.6 km/h
215 17-09-2013 22:00:00 10.325 C 8.97 g/m*3 10.33 C 2.26667 km/h
216 17-09-2013 23:00:00 10.58333 C 9.16 g/m*3 10.58 C 3.46667 km/h
217 18-09-2013 00:00:00 11.08333 C 9.42 g/m*3 11.08 C 1.86667 km/h
218 18-09-2013 01:00:00 11.1 C 9.61 g/m*3 11.1 C 0.13333 km/h
219 18-09-2013 02:00:00 11.51667 C 9.93 g/m*3 11.52 C 3.35 km/h
220 18-09-2013 03:00:00 12.59167 C 10.41 g/m*3 12.59 C 3.88333 km/h
221 18-09-2013 04:00:00 13.18333 C 10.72 g/m*3 13.18 C 3.6 km/h
222 18-09-2013 05:00:00 13.95833 C 11.06 g/m*3 13.96 C 8.325 km/h
223 18-09-2013 06:00:00 13.825 C 11.19 g/m*3 13.83 C 2 km/h
224 18-09-2013 07:00:00 13.725 C 11.32 g/m*3 13.73 C 0.13333 km/h
225 18-09-2013 08:00:00 13.39167 C 11.05 g/m*3 13.39 C 5.625 km/h
Sensor: Nr:Datum:Temp:Abs-Feuchte:Windchill:Wind:
Aussen-T/F 226 18-09-2013 09:00:00 12.89167 C 10.6 g/m*3 12.89 C 5.75833 km/h
227 18-09-2013 10:00:00 12.40833 C 10.34 g/m*3 12.41 C 1.86667 km/h
228 18-09-2013 11:00:00 12.33333 C 10.27 g/m*3 12.33 C 4.00833 km/h
229 18-09-2013 12:00:00 12.51667 C 10.36 g/m*3 12.52 C 2.93333 km/h
230 18-09-2013 13:00:00 13.35833 C 10.55 g/m*3 13.36 C 5.63333 km/h
231 18-09-2013 14:00:00 13.7 C 10.54 g/m*3 13.7 C 5.89167 km/h
232 18-09-2013 15:00:00 13.6 C 10.37 g/m*3 13.6 C 6.29167 km/h
233 18-09-2013 16:00:00 13.74167 C 10.24 g/m*3 13.74 C 5.625 km/h
234 18-09-2013 17:00:00 13.86667 C 10.17 g/m*3 13.87 C 5.75833 km/h
235 18-09-2013 18:00:00 12.675 C 9.94 g/m*3 12.68 C 4.4 km/h
236 18-09-2013 19:00:00 11.81667 C 9.96 g/m*3 11.82 C 0 km/h
237 18-09-2013 20:00:00 11.36667 C 9.83 g/m*3 11.37 C 0.8 km/h
238 18-09-2013 21:00:00 11.20833 C 9.74 g/m*3 11.21 C 0.66667 km/h
239 18-09-2013 22:00:00 11 C 9.57 g/m*3 11 C 2.675 km/h
240 18-09-2013 23:00:00 11.05 C 9.25 g/m*3 11.05 C 5.23333 km/h
241 19-09-2013 00:00:00 10.2 C 8.88 g/m*3 10.2 C 2.66667 km/h
242 19-09-2013 01:00:00 9.74167 C 8.74 g/m*3 9.74 C 1.73333 km/h
243 19-09-2013 02:00:00 9.35833 C 8.57 g/m*3 9.36 C 1.33333 km/h
244 19-09-2013 03:00:00 9.55 C 8.67 g/m*3 9.55 C 0.4 km/h
245 19-09-2013 04:00:00 9.56667 C 8.71 g/m*3 9.57 C 0.66667 km/h
246 19-09-2013 05:00:00 10.025 C 8.85 g/m*3 10.03 C 0.53333 km/h
247 19-09-2013 06:00:00 9.56667 C 8.66 g/m*3 9.57 C 0 km/h
248 19-09-2013 07:00:00 9.44167 C 8.68 g/m*3 9.44 C 2.13333 km/h
249 19-09-2013 08:00:00 10.65 C 8.84 g/m*3 10.11 C 6.425 km/h
250 19-09-2013 09:00:00 11.21667 C 8.98 g/m*3 11.22 C 8.2 km/h
Sensor: Nr:Datum:Temp:Abs-Feuchte:Windchill:Wind:
Aussen-T/F 251 19-09-2013 10:00:00 11.95 C 9.34 g/m*3 11.95 C 9.14167 km/h
252 19-09-2013 11:00:00 12.85 C 9.51 g/m*3 12.85 C 9.81667 km/h
253 19-09-2013 12:00:00 14.01667 C 9.65 g/m*3 14.02 C 8.325 km/h
254 19-09-2013 13:00:00 15.03333 C 9.2 g/m*3 15.03 C 11.00833 km/h
255 19-09-2013 14:00:00 14.54167 C 9.22 g/m*3 14.54 C 9.54167 km/h
256 19-09-2013 15:00:00 13.99167 C 9.19 g/m*3 13.99 C 5.36667 km/h
257 19-09-2013 16:00:00 14.93333 C 9.1 g/m*3 14.93 C 7.8 km/h
258 19-09-2013 17:00:00 14.6 C 9.44 g/m*3 14.6 C 3.34167 km/h
259 19-09-2013 18:00:00 13.30833 C 9.66 g/m*3 13.31 C 1.6 km/h
260 19-09-2013 19:00:00 12.50833 C 9.51 g/m*3 12.51 C 2.13333 km/h
261 19-09-2013 20:00:00 12.2 C 9.33 g/m*3 12.2 C 1.2 km/h
262 19-09-2013 21:00:00 11.74167 C 9.54 g/m*3 11.74 C 0.13333 km/h
263 19-09-2013 22:00:00 11.76667 C 9.57 g/m*3 11.77 C 1.20833 km/h
264 19-09-2013 23:00:00 12.70833 C 9.22 g/m*3 12.71 C 5.625 km/h
265 20-09-2013 00:00:00 11.78333 C 9.46 g/m*3 11.78 C 4.14167 km/h
266 20-09-2013 01:00:00 11.625 C 9.53 g/m*3 11.63 C 8.58333 km/h
267 20-09-2013 02:00:00 11.74167 C 9.55 g/m*3 11.74 C 11.40833 km/h
268 20-09-2013 03:00:00 11.76667 C 9.55 g/m*3 11.77 C 10.88333 km/h
269 20-09-2013 04:00:00 11.88333 C 9.58 g/m*3 11.88 C 11.025 km/h
270 20-09-2013 05:00:00 12.15833 C 9.67 g/m*3 12.16 C 9.55 km/h
271 20-09-2013 06:00:00 12.26667 C 9.77 g/m*3 12.27 C 9.13333 km/h
272 20-09-2013 07:00:00 12.5 C 9.98 g/m*3 12.5 C 9.55 km/h
273 20-09-2013 08:00:00 12.76667 C 10.21 g/m*3 12.77 C 6.96667 km/h
274 20-09-2013 09:00:00 13.64167 C 10.61 g/m*3 13.64 C 9.025 km/h
275 20-09-2013 10:00:00 14.78333 C 10.97 g/m*3 14.78 C 6.05 km/h
Sensor: Nr:Datum:Temp:Abs-Feuchte:Windchill:Wind:
Aussen-T/F 276 20-09-2013 11:00:00 15.46667 C 10.95 g/m*3 15.47 C 6.99167 km/h
277 20-09-2013 12:00:00 15.625 C 10.7 g/m*3 15.63 C 8.325 km/h
278 20-09-2013 13:00:00 15.51667 C 10.79 g/m*3 15.52 C 5.625 km/h
279 20-09-2013 14:00:00 16.04167 C 10.8 g/m*3 16.04 C 5.48333 km/h
280 20-09-2013 15:00:00 16.275 C 10.81 g/m*3 16.27 C 5.225 km/h
281 20-09-2013 16:00:00 17.29167 C 9.91 g/m*3 17.29 C 10.88333 km/h
282 20-09-2013 17:00:00 16.925 C 10.24 g/m*3 16.93 C 6.05 km/h
283 20-09-2013 18:00:00 15.35833 C 10.9 g/m*3 15.36 C 0.66667 km/h
284 20-09-2013 19:00:00 14.5 C 10.67 g/m*3 14.5 C 2.26667 km/h
285 20-09-2013 20:00:00 13.90833 C 10.62 g/m*3 13.91 C 0.26667 km/h
286 20-09-2013 21:00:00 13.69167 C 10.46 g/m*3 13.69 C 1.06667 km/h
287 20-09-2013 22:00:00 13.65833 C 10.5 g/m*3 13.66 C 0.4 km/h
288 20-09-2013 23:00:00 12.85833 C 10.19 g/m*3 12.86 C 0.13333 km/h
289 21-09-2013 00:00:00 11.93333 C 9.85 g/m*3 11.93 C 0.13333 km/h
290 21-09-2013 01:00:00 11.24167 C 9.58 g/m*3 11.24 C 0 km/h
291 21-09-2013 02:00:00 10.65 C 9.3 g/m*3 10.65 C 0 km/h
292 21-09-2013 03:00:00 10.20833 C 9.12 g/m*3 10.21 C 0.26667 km/h
293 21-09-2013 04:00:00 9.86667 C 8.94 g/m*3 9.87 C 0.66667 km/h
294 21-09-2013 05:00:00 9.025 C 8.48 g/m*3 9.03 C 1.33333 km/h
295 21-09-2013 06:00:00 8.81667 C 8.43 g/m*3 8.82 C 2.53333 km/h
296 21-09-2013 07:00:00 8.65 C 8.36 g/m*3 7.87 C 6.16667 km/h
297 21-09-2013 08:00:00 8.63333 C 8.35 g/m*3 7.25 C 8.73333 km/h
298 21-09-2013 09:00:00 9.16667 C 8.73 g/m*3 8.1 C 7.65833 km/h
299 21-09-2013 10:00:00 10.08333 C 9.26 g/m*3 9.33 C 6.975 km/h
300 21-09-2013 11:00:00 11.49167 C 10.02 g/m*3 11.49 C 1.2 km/h
Sensor: Nr:Datum:Temp:Abs-Feuchte:Windchill:Wind:
Aussen-T/F 301 21-09-2013 12:00:00 13.475 C 10.74 g/m*3 13.48 C 0.4 km/h
302 21-09-2013 13:00:00 15.55 C 11.05 g/m*3 15.55 C 1.73333 km/h
303 21-09-2013 14:00:00 16.925 C 10.76 g/m*3 16.93 C 3.2 km/h
304 21-09-2013 15:00:00 17.48333 C 10.69 g/m*3 17.48 C 2.675 km/h
305 21-09-2013 16:00:00 17.90833 C 10.95 g/m*3 17.91 C 4.55833 km/h
306 21-09-2013 17:00:00 16.60833 C 11.61 g/m*3 16.61 C 0.66667 km/h
307 21-09-2013 18:00:00 15.14167 C 11.39 g/m*3 15.14 C 0.53333 km/h
308 21-09-2013 19:00:00 13.7 C 10.76 g/m*3 13.7 C 0.53333 km/h
309 21-09-2013 20:00:00 12.68333 C 10.29 g/m*3 12.68 C 0 km/h
310 21-09-2013 21:00:00 11.85 C 9.9 g/m*3 11.85 C 0 km/h
311 21-09-2013 22:00:00 11.2 C 9.58 g/m*3 11.2 C 0 km/h
312 21-09-2013 23:00:00 10.71667 C 9.34 g/m*3 10.72 C 0.53333 km/h
313 22-09-2013 00:00:00 10.29167 C 9.19 g/m*3 10.29 C 0 km/h
314 22-09-2013 01:00:00 9.99167 C 9.02 g/m*3 9.99 C 0 km/h
315 22-09-2013 02:00:00 9.63333 C 8.85 g/m*3 9.63 C 0 km/h
316 22-09-2013 03:00:00 9.375 C 8.76 g/m*3 9.38 C 0 km/h
317 22-09-2013 04:00:00 9.06667 C 8.59 g/m*3 9.07 C 0 km/h
318 22-09-2013 05:00:00 9.25833 C 8.69 g/m*3 9.26 C 0.13333 km/h
319 22-09-2013 06:00:00 9.325 C 8.74 g/m*3 9.32 C 0 km/h
320 22-09-2013 07:00:00 9.70833 C 9 g/m*3 9.71 C 0 km/h
321 22-09-2013 08:00:00 10.43704 C 9.45 g/m*3 10.44 C 0 km/h
322 22-09-2013 09:00:00 10.78148 C 9.62 g/m*3 10.78 C 0.05926 km/h
323 22-09-2013 10:00:00 12.5 C 10.22 g/m*3 12.5 C 1.2 km/h
324 22-09-2013 11:00:00 14.45833 C 10.82 g/m*3 14.46 C 1.86667 km/h
325 22-09-2013 12:00:00 15.95 C 11.34 g/m*3 15.95 C 2.93333 km/h
Sensor: Nr:Datum:Temp:Abs-Feuchte:Windchill:Wind:
Aussen-T/F 326 22-09-2013 13:00:00 17.18333 C 11.61 g/m*3 17.18 C 2.66667 km/h
327 22-09-2013 14:00:00 18.58571 C 12.11 g/m*3 18.59 C 3.88571 km/h
328 22-09-2013 15:00:00 18.35 C 12.56 g/m*3 18.35 C 1.06667 km/h
329 22-09-2013 16:00:00 17.91667 C 12.69 g/m*3 17.92 C 2.28333 km/h
330 22-09-2013 17:00:00 19.48333 C 12.09 g/m*3 19.48 C 6.40833 km/h
331 22-09-2013 18:00:00 18.45833 C 12.11 g/m*3 18.46 C 4.275 km/h
332 22-09-2013 19:00:00 16.14167 C 12.22 g/m*3 16.14 C 0.13333 km/h
333 22-09-2013 20:00:00 15.39167 C 12.16 g/m*3 15.39 C 0 km/h
334 22-09-2013 21:00:00 15.08333 C 12.04 g/m*3 15.08 C 0 km/h
335 22-09-2013 22:00:00 14.89167 C 11.97 g/m*3 14.89 C 0 km/h
336 22-09-2013 23:00:00 14.26667 C 11.59 g/m*3 14.27 C 0 km/h
337 23-09-2013 00:00:00 14.41667 C 11.79 g/m*3 14.42 C 0 km/h
338 23-09-2013 01:00:00 14.55833 C 11.85 g/m*3 14.56 C 0.4 km/h
339 23-09-2013 02:00:00 14.64167 C 11.9 g/m*3 14.64 C 0.26667 km/h
340 23-09-2013 03:00:00 14.68333 C 11.94 g/m*3 14.68 C 0.13333 km/h
341 23-09-2013 04:00:00 14.7 C 11.96 g/m*3 14.7 C 0.26667 km/h
342 23-09-2013 05:00:00 14.68333 C 11.98 g/m*3 14.68 C 1.33333 km/h
343 23-09-2013 06:00:00 14.725 C 12.09 g/m*3 14.73 C 0.26667 km/h
344 23-09-2013 07:00:00 14.73333 C 12.11 g/m*3 14.73 C 0.13333 km/h
345 23-09-2013 08:00:00 14.83333 C 12.13 g/m*3 14.83 C 0.66667 km/h
346 23-09-2013 09:00:00 15.36667 C 12.3 g/m*3 15.37 C 0.53333 km/h
347 23-09-2013 10:00:00 16.15 C 12.52 g/m*3 16.15 C 2.66667 km/h
348 23-09-2013 11:00:00 17.26667 C 12.33 g/m*3 17.27 C 3.73333 km/h
349 23-09-2013 12:00:00 17.83333 C 12.03 g/m*3 17.83 C 4.4 km/h
350 23-09-2013 13:00:00 18.25 C 11.91 g/m*3 18.25 C 5.74167 km/h
Sensor: Nr:Datum:Temp:Abs-Feuchte:Windchill:Wind:
Aussen-T/F 351 23-09-2013 14:00:00 18.29167 C 11.84 g/m*3 18.29 C 4.80833 km/h
352 23-09-2013 15:00:00 18.75 C 11.72 g/m*3 18.75 C 5.34167 km/h
353 23-09-2013 16:00:00 18.8 C 11.64 g/m*3 18.8 C 3.73333 km/h
354 23-09-2013 17:00:00 17.61667 C 12.27 g/m*3 17.62 C 0.26667 km/h
355 23-09-2013 18:00:00 16.50833 C 12.32 g/m*3 16.51 C 0 km/h
356 23-09-2013 19:00:00 14.83333 C 11.47 g/m*3 14.83 C 0 km/h
357 23-09-2013 20:00:00 13.63333 C 10.87 g/m*3 13.63 C 0.13333 km/h
358 23-09-2013 21:00:00 12.74167 C 10.43 g/m*3 12.74 C 0 km/h
359 23-09-2013 22:00:00 11.90833 C 10.06 g/m*3 11.91 C 0 km/h
360 23-09-2013 23:00:00 11.23333 C 9.69 g/m*3 11.23 C 0 km/h
361 24-09-2013 00:00:00 10.69167 C 9.42 g/m*3 10.69 C 0 km/h
362 24-09-2013 01:00:00 10.15 C 9.11 g/m*3 10.15 C 0 km/h
363 24-09-2013 02:00:00 9.85833 C 9.02 g/m*3 9.86 C 0 km/h
364 24-09-2013 03:00:00 9.88333 C 9.05 g/m*3 9.88 C 0.53333 km/h
365 24-09-2013 04:00:00 9.63333 C 8.9 g/m*3 9.63 C 1.2 km/h
366 24-09-2013 05:00:00 9.225 C 8.68 g/m*3 9.23 C 0.8 km/h
367 24-09-2013 06:00:00 9.15 C 8.7 g/m*3 9.15 C 0 km/h
368 24-09-2013 07:00:00 9.05833 C 8.67 g/m*3 9.06 C 0 km/h
369 24-09-2013 08:00:00 9.11667 C 8.7 g/m*3 9.12 C 2.53333 km/h
370 24-09-2013 09:00:00 9.2 C 8.75 g/m*3 9.2 C 3.06667 km/h
371 24-09-2013 10:00:00 9.86667 C 9.13 g/m*3 9.87 C 1.86667 km/h
372 24-09-2013 11:00:00 10.90833 C 9.75 g/m*3 10.91 C 1.46667 km/h
373 24-09-2013 12:00:00 12.36667 C 10.69 g/m*3 12.37 C 2 km/h
374 24-09-2013 13:00:00 15.1 C 12.04 g/m*3 15.1 C 0.66667 km/h
375 24-09-2013 14:00:00 16.79167 C 12.63 g/m*3 16.79 C 1.2 km/h
Sensor: Nr:Datum:Temp:Abs-Feuchte:Windchill:Wind:
Aussen-T/F 376 24-09-2013 15:00:00 17.54167 C 12.8 g/m*3 17.54 C 2.26667 km/h
377 24-09-2013 16:00:00 17.53333 C 12.88 g/m*3 17.53 C 0.13333 km/h
378 24-09-2013 17:00:00 16.66667 C 12.76 g/m*3 16.67 C 0.13333 km/h
379 24-09-2013 18:00:00 16.30833 C 12.63 g/m*3 16.31 C 0.13333 km/h
380 24-09-2013 19:00:00 15.225 C 12.01 g/m*3 15.23 C 0 km/h
381 24-09-2013 20:00:00 14.125 C 11.38 g/m*3 14.13 C 0 km/h
382 24-09-2013 21:00:00 13.43333 C 11.06 g/m*3 13.43 C 0 km/h
383 24-09-2013 22:00:00 12.55 C 10.53 g/m*3 12.55 C 0 km/h
384 24-09-2013 23:00:00 11.96667 C 10.21 g/m*3 11.97 C 0 km/h
385 25-09-2013 00:00:00 11.55 C 10.03 g/m*3 11.55 C 0 km/h
386 25-09-2013 01:00:00 11.05 C 9.73 g/m*3 11.05 C 0 km/h
387 25-09-2013 02:00:00 10.7 C 9.53 g/m*3 10.7 C 0 km/h
388 25-09-2013 03:00:00 10.65833 C 9.54 g/m*3 10.66 C 0 km/h
389 25-09-2013 04:00:00 10.7 C 9.61 g/m*3 10.7 C 0.13333 km/h
390 25-09-2013 05:00:00 10.35 C 9.42 g/m*3 10.35 C 0 km/h
391 25-09-2013 06:00:00 10.2 C 9.33 g/m*3 10.2 C 1.6 km/h
392 25-09-2013 07:00:00 10.09167 C 9.26 g/m*3 10.09 C 0.26667 km/h
393 25-09-2013 08:00:00 10.21667 C 9.34 g/m*3 10.22 C 1.6 km/h
394 25-09-2013 09:00:00 10.6 C 9.57 g/m*3 10.6 C 0.66667 km/h
395 25-09-2013 10:00:00 11.35833 C 10.03 g/m*3 11.36 C 0.26667 km/h
396 25-09-2013 11:00:00 12.74167 C 10.96 g/m*3 12.74 C 0 km/h
397 25-09-2013 12:00:00 14.99167 C 12.36 g/m*3 14.99 C 0.66667 km/h
398 25-09-2013 13:00:00 16.95833 C 13.3 g/m*3 16.96 C 0 km/h
399 25-09-2013 14:00:00 17.74167 C 13.85 g/m*3 17.74 C 0 km/h
400 25-09-2013 15:00:00 18.21667 C 14.17 g/m*3 18.22 C 0.13333 km/h
Sensor: Nr:Datum:Temp:Abs-Feuchte:Windchill:Wind:
Aussen-T/F 401 25-09-2013 16:00:00 18.84167 C 14.69 g/m*3 18.84 C 0 km/h
402 25-09-2013 17:00:00 19.66667 C 14.72 g/m*3 19.67 C 0.66667 km/h
403 25-09-2013 18:00:00 18.875 C 14.05 g/m*3 18.88 C 1.60833 km/h
404 25-09-2013 19:00:00 17.21667 C 13.42 g/m*3 17.22 C 1.46667 km/h
405 25-09-2013 20:00:00 17.375 C 13.21 g/m*3 17.38 C 2.80833 km/h
406 25-09-2013 21:00:00 16.775 C 13 g/m*3 16.77 C 0.66667 km/h
407 25-09-2013 22:00:00 16.05833 C 12.85 g/m*3 16.06 C 0 km/h
408 25-09-2013 23:00:00 15.14167 C 12.28 g/m*3 15.14 C 0.13333 km/h
409 26-09-2013 00:00:00 14.75 C 12.12 g/m*3 14.75 C 0 km/h
410 26-09-2013 01:00:00 14.65 C 12.05 g/m*3 14.65 C 0 km/h
411 26-09-2013 02:00:00 14.06667 C 11.65 g/m*3 14.07 C 0 km/h
412 26-09-2013 03:00:00 13.78333 C 11.54 g/m*3 13.78 C 0.4 km/h
413 26-09-2013 04:00:00 13.9 C 11.63 g/m*3 13.9 C 2.66667 km/h
414 26-09-2013 05:00:00 14.14167 C 11.8 g/m*3 14.14 C 2.93333 km/h
415 26-09-2013 06:00:00 14.2 C 11.77 g/m*3 14.2 C 1.2 km/h
416 26-09-2013 07:00:00 14.26667 C 11.79 g/m*3 14.27 C 1.46667 km/h
417 26-09-2013 08:00:00 14.6 C 12.04 g/m*3 14.6 C 1.06667 km/h
418 26-09-2013 09:00:00 15.10833 C 12.23 g/m*3 15.11 C 4.55 km/h
419 26-09-2013 10:00:00 15.875 C 11.9 g/m*3 15.88 C 6.025 km/h
420 26-09-2013 11:00:00 16.475 C 11.75 g/m*3 16.48 C 7.64167 km/h
421 26-09-2013 12:00:00 16.64167 C 11.51 g/m*3 16.64 C 7.8 km/h
422 26-09-2013 13:00:00 16.025 C 11.43 g/m*3 16.02 C 5.89167 km/h
423 26-09-2013 14:00:00 15.79167 C 11.6 g/m*3 15.79 C 6.45 km/h
424 26-09-2013 15:00:00 16.11667 C 11.62 g/m*3 16.12 C 3.06667 km/h
425 26-09-2013 16:00:00 16.68333 C 11.61 g/m*3 16.68 C 3.46667 km/h
Sensor: Nr:Datum:Temp:Abs-Feuchte:Windchill:Wind:
Aussen-T/F 426 26-09-2013 17:00:00 16.425 C 11.7 g/m*3 16.43 C 2.26667 km/h
427 26-09-2013 18:00:00 15.38333 C 11.39 g/m*3 15.38 C 2.26667 km/h
428 26-09-2013 19:00:00 13.825 C 10.8 g/m*3 13.83 C 0.93333 km/h
429 26-09-2013 20:00:00 12.55 C 10.26 g/m*3 12.55 C 0.13333 km/h
430 26-09-2013 21:00:00 11.91667 C 9.87 g/m*3 11.92 C 0 km/h
431 26-09-2013 22:00:00 11.53333 C 9.73 g/m*3 11.53 C 0.13333 km/h
432 26-09-2013 23:00:00 11.43333 C 9.69 g/m*3 11.43 C 0.53333 km/h
433 27-09-2013 00:00:00 10.7 C 9.25 g/m*3 10.7 C 0.93333 km/h
434 27-09-2013 01:00:00 9.95833 C 8.88 g/m*3 9.96 C 0.13333 km/h
435 27-09-2013 02:00:00 9.30833 C 8.54 g/m*3 9.31 C 0 km/h
436 27-09-2013 03:00:00 8.85833 C 8.33 g/m*3 8.86 C 0 km/h
437 27-09-2013 04:00:00 8.56667 C 8.23 g/m*3 8.57 C 0 km/h
438 27-09-2013 05:00:00 8.26667 C 8.07 g/m*3 8.27 C 0 km/h
439 27-09-2013 06:00:00 7.825 C 7.85 g/m*3 7.83 C 0 km/h
440 27-09-2013 07:00:00 7.39167 C 7.68 g/m*3 7.39 C 0 km/h
441 27-09-2013 08:00:00 7.94167 C 7.99 g/m*3 7.94 C 0 km/h
442 27-09-2013 09:00:00 9.11667 C 8.59 g/m*3 9.12 C 1.73333 km/h
443 27-09-2013 10:00:00 10.26667 C 8.79 g/m*3 10.27 C 2.4 km/h
444 27-09-2013 11:00:00 11.36667 C 9.03 g/m*3 11.37 C 3.33333 km/h
445 27-09-2013 12:00:00 12.84167 C 9.38 g/m*3 12.84 C 6.15833 km/h
446 27-09-2013 13:00:00 15.45 C 10.14 g/m*3 15.45 C 6.29167 km/h
447 27-09-2013 14:00:00 16.44167 C 10.52 g/m*3 16.44 C 4 km/h
448 27-09-2013 15:00:00 17.14167 C 10.36 g/m*3 17.14 C 4.13333 km/h
449 27-09-2013 16:00:00 16.8 C 10.7 g/m*3 16.8 C 1.6 km/h
450 27-09-2013 17:00:00 15.09167 C 10.66 g/m*3 15.09 C 1.6 km/h
Sensor: Nr:Datum:Temp:Abs-Feuchte:Windchill:Wind:
Aussen-T/F 451 27-09-2013 18:00:00 13.69167 C 10.34 g/m*3 13.69 C 0.26667 km/h
452 27-09-2013 19:00:00 12.21667 C 9.54 g/m*3 12.22 C 0.26667 km/h
453 27-09-2013 20:00:00 11.16667 C 9.06 g/m*3 11.17 C 0.66667 km/h
454 27-09-2013 21:00:00 10.45 C 8.69 g/m*3 10.45 C 0.26667 km/h
455 27-09-2013 22:00:00 9.85 C 8.41 g/m*3 9.85 C 0.13333 km/h
456 27-09-2013 23:00:00 9.36667 C 8.15 g/m*3 9.37 C 0.13333 km/h
457 28-09-2013 00:00:00 8.7 C 7.86 g/m*3 8.7 C 0 km/h
458 28-09-2013 01:00:00 8.16667 C 7.74 g/m*3 8.17 C 0 km/h
459 28-09-2013 02:00:00 7.55833 C 7.45 g/m*3 7.56 C 0 km/h
460 28-09-2013 03:00:00 6.96667 C 7.25 g/m*3 6.97 C 0 km/h
461 28-09-2013 04:00:00 6.45 C 7.07 g/m*3 6.45 C 0 km/h
462 28-09-2013 05:00:00 6.11667 C 6.95 g/m*3 6.12 C 0 km/h
463 28-09-2013 06:00:00 5.93333 C 6.94 g/m*3 5.93 C 0 km/h
464 28-09-2013 07:00:00 5.7 C 6.83 g/m*3 5.7 C 0 km/h
465 28-09-2013 08:00:00 5.825 C 6.89 g/m*3 5.83 C 0 km/h
466 28-09-2013 09:00:00 6.55833 C 7.23 g/m*3 6.56 C 0 km/h
467 28-09-2013 10:00:00 7.81667 C 7.82 g/m*3 7.82 C 0.26667 km/h
468 28-09-2013 11:00:00 9.74167 C 8.57 g/m*3 9.74 C 1.33333 km/h
469 28-09-2013 12:00:00 12.48333 C 9.38 g/m*3 12.48 C 4 km/h
470 28-09-2013 13:00:00 15.56667 C 10.23 g/m*3 15.57 C 5.35 km/h
471 28-09-2013 14:00:00 16.86667 C 10.78 g/m*3 16.87 C 5.75833 km/h
472 28-09-2013 15:00:00 17.4 C 11.02 g/m*3 17.4 C 5.225 km/h
473 28-09-2013 16:00:00 16.275 C 11.23 g/m*3 16.27 C 1.86667 km/h
474 28-09-2013 17:00:00 16.2 C 10.58 g/m*3 16.2 C 3.6 km/h
475 28-09-2013 18:00:00 13.92 C 10.49 g/m*3 13.92 C 0.32 km/h
Sensor: Nr:Datum:Temp:Abs-Feuchte:Windchill:Wind:
Aussen-T/F 476 28-09-2013 19:00:00 12.85 C 9.96 g/m*3 12.85 C 0 km/h
477 28-09-2013 20:00:00 12.16667 C 9.67 g/m*3 12.17 C 0.26667 km/h
478 28-09-2013 21:00:00 12.16667 C 9.32 g/m*3 12.17 C 1.06667 km/h
479 28-09-2013 22:00:00 12.21818 C 9.1 g/m*3 12.22 C 2.61818 km/h
480 28-09-2013 23:00:00 12.24167 C 8.97 g/m*3 12.24 C 1.6 km/h
481 29-09-2013 00:00:00 12.03333 C 8.85 g/m*3 12.03 C 0.93333 km/h
482 29-09-2013 01:00:00 11.60833 C 8.78 g/m*3 11.61 C 0.93333 km/h
483 29-09-2013 02:00:00 10.81667 C 8.97 g/m*3 10.82 C 1.2 km/h
484 29-09-2013 03:00:00 10.08333 C 8.94 g/m*3 10.08 C 0 km/h
485 29-09-2013 04:00:00 9.71667 C 8.78 g/m*3 9.72 C 1.86667 km/h
486 29-09-2013 05:00:00 9.425 C 8.68 g/m*3 9.43 C 0 km/h
487 29-09-2013 06:00:00 8.93333 C 8.43 g/m*3 8.93 C 1.2 km/h
488 29-09-2013 07:00:00 8.95 C 8.44 g/m*3 8.95 C 1.06667 km/h
489 29-09-2013 08:00:00 9.15 C 8.53 g/m*3 9.15 C 1.06667 km/h
490 29-09-2013 09:00:00 9.74167 C 8.74 g/m*3 9.74 C 0.8 km/h
491 29-09-2013 10:00:00 10.76667 C 8.98 g/m*3 10.77 C 2.54167 km/h
492 29-09-2013 11:00:00 11.95833 C 8.88 g/m*3 11.96 C 4.28333 km/h
493 29-09-2013 12:00:00 13.86667 C 9.16 g/m*3 13.87 C 6.85 km/h
494 29-09-2013 13:00:00 14.23333 C 9.97 g/m*3 14.23 C 4.29167 km/h
495 29-09-2013 14:00:00 16.3 C 9.9 g/m*3 16.3 C 6.96667 km/h
496 29-09-2013 15:00:00 16.48333 C 9.87 g/m*3 16.48 C 5.75833 km/h
497 29-09-2013 16:00:00 17.56667 C 9.27 g/m*3 17.57 C 6.43333 km/h
498 29-09-2013 17:00:00 16.74167 C 9.45 g/m*3 16.74 C 6.43333 km/h
499 29-09-2013 18:00:00 13.88333 C 9.85 g/m*3 13.88 C 1.46667 km/h
500 29-09-2013 19:00:00 12.03333 C 9.07 g/m*3 12.03 C 0.53333 km/h
Sensor: Nr:Datum:Temp:Abs-Feuchte:Windchill:Wind:
Aussen-T/F 501 29-09-2013 20:00:00 11.33333 C 8.89 g/m*3 11.33 C 0.13333 km/h
502 29-09-2013 21:00:00 10.66667 C 8.54 g/m*3 10.67 C 0.13333 km/h
503 29-09-2013 22:00:00 9.93333 C 8.13 g/m*3 9.93 C 0 km/h
504 29-09-2013 23:00:00 9.14167 C 7.77 g/m*3 9.14 C 0 km/h

Maximal/Minimal-Werte vom 09.09.2013 - 29.09.2013

Sensor Min Max Avg
Temp
(Aussen-T/F)
5.6 °C
28-09-2013  07:35:00
20.2 °C
25-09-2013  17:25:00
13.19 °C
Abs-Feuchte
(Aussen-T/F)
6.83 g/m*3
28-09-2013  07:00:00
14.81 g/m*3
14-09-2013  13:00:00
10.2 g/m*3
Windchill
(Aussen-T/F)
5.7 C
28-09-2013  07:00:00
19.67 C
25-09-2013  17:00:00
13.16 C

Die Daten stammen von einer Davis Vantage Pro 2 Wetter-Station und werden unter Linux mit der Software wview2wettercgi und aufbereitet. Alle Angaben erfolgen ohne Gewähr für ihre Vollständigkeit oder Richtigkeit.
Kontakt: Rainer Krienke krienke@uni-koblenz.de . Meine Webseiten an der Uni Koblenz oder privat.
Version: $Revision: 0.78 $